sensor_id;sensor_type;location;lat;lon;timestamp;P1;durP1;ratioP1;P2;durP2;ratioP2
39050;SDS011;24805;55.852;37.644;2023-05-19T00:04:11;4.20;;;1.10;;
39050;SDS011;24805;55.852;37.644;2023-05-19T00:09:15;2.40;;;1.10;;
39050;SDS011;24805;55.852;37.644;2023-05-19T00:14:17;1.08;;;0.88;;
39050;SDS011;24805;55.852;37.644;2023-05-19T00:19:19;2.63;;;1.20;;
39050;SDS011;24805;55.852;37.644;2023-05-19T00:24:23;2.50;;;1.02;;
39050;SDS011;24805;55.852;37.644;2023-05-19T00:29:25;1.88;;;1.00;;
39050;SDS011;24805;55.852;37.644;2023-05-19T00:34:27;3.00;;;1.20;;
39050;SDS011;24805;55.852;37.644;2023-05-19T00:39:29;1.92;;;1.00;;
39050;SDS011;24805;55.852;37.644;2023-05-19T00:44:31;2.72;;;1.20;;
39050;SDS011;24805;55.852;37.644;2023-05-19T00:49:34;3.10;;;1.35;;
39050;SDS011;24805;55.852;37.644;2023-05-19T00:54:37;3.30;;;1.27;;
39050;SDS011;24805;55.852;37.644;2023-05-19T00:59:39;1.77;;;1.20;;
39050;SDS011;24805;55.852;37.644;2023-05-19T01:04:42;1.85;;;0.90;;
39050;SDS011;24805;55.852;37.644;2023-05-19T01:09:45;2.53;;;0.82;;
39050;SDS011;24805;55.852;37.644;2023-05-19T01:14:48;2.42;;;0.75;;
39050;SDS011;24805;55.852;37.644;2023-05-19T01:30:17;2.28;;;0.88;;
39050;SDS011;24805;55.852;37.644;2023-05-19T01:35:31;2.83;;;1.60;;
39050;SDS011;24805;55.852;37.644;2023-05-19T01:40:39;4.13;;;1.50;;
39050;SDS011;24805;55.852;37.644;2023-05-19T01:45:43;3.42;;;1.70;;
39050;SDS011;24805;55.852;37.644;2023-05-19T01:50:45;3.95;;;1.98;;
39050;SDS011;24805;55.852;37.644;2023-05-19T01:55:49;4.80;;;2.15;;
39050;SDS011;24805;55.852;37.644;2023-05-19T02:11:55;4.68;;;2.10;;
39050;SDS011;24805;55.852;37.644;2023-05-19T02:17:03;2.90;;;1.80;;
39050;SDS011;24805;55.852;37.644;2023-05-19T02:22:07;3.47;;;2.03;;
39050;SDS011;24805;55.852;37.644;2023-05-19T02:27:09;4.28;;;2.20;;
39050;SDS011;24805;55.852;37.644;2023-05-19T02:32:11;2.60;;;1.77;;
39050;SDS011;24805;55.852;37.644;2023-05-19T02:37:14;3.83;;;2.30;;
39050;SDS011;24805;55.852;37.644;2023-05-19T02:42:16;3.00;;;1.50;;
39050;SDS011;24805;55.852;37.644;2023-05-19T02:47:19;3.17;;;1.80;;
39050;SDS011;24805;55.852;37.644;2023-05-19T02:52:21;3.75;;;1.98;;
39050;SDS011;24805;55.852;37.644;2023-05-19T02:57:23;3.88;;;1.92;;
39050;SDS011;24805;55.852;37.644;2023-05-19T03:02:27;2.45;;;1.80;;
39050;SDS011;24805;55.852;37.644;2023-05-19T03:07:29;3.65;;;2.03;;
39050;SDS011;24805;55.852;37.644;2023-05-19T03:12:31;2.75;;;1.75;;
39050;SDS011;24805;55.852;37.644;2023-05-19T03:17:34;7.40;;;2.15;;
39050;SDS011;24805;55.852;37.644;2023-05-19T03:22:37;4.25;;;2.33;;
39050;SDS011;24805;55.852;37.644;2023-05-19T03:32:41;4.03;;;2.25;;
39050;SDS011;24805;55.852;37.644;2023-05-19T03:37:44;4.60;;;2.20;;
39050;SDS011;24805;55.852;37.644;2023-05-19T03:42:47;5.90;;;2.60;;
39050;SDS011;24805;55.852;37.644;2023-05-19T03:47:50;3.80;;;2.60;;
39050;SDS011;24805;55.852;37.644;2023-05-19T03:53:07;4.20;;;2.80;;
39050;SDS011;24805;55.852;37.644;2023-05-19T03:58:14;5.88;;;2.83;;
39050;SDS011;24805;55.852;37.644;2023-05-19T04:03:16;8.15;;;2.97;;
39050;SDS011;24805;55.852;37.644;2023-05-19T04:08:18;4.57;;;2.97;;
39050;SDS011;24805;55.852;37.644;2023-05-19T04:13:21;6.13;;;3.30;;
39050;SDS011;24805;55.852;37.644;2023-05-19T04:18:23;5.00;;;3.38;;
39050;SDS011;24805;55.852;37.644;2023-05-19T04:23:28;8.35;;;3.63;;
39050;SDS011;24805;55.852;37.644;2023-05-19T04:28:30;5.38;;;3.60;;
39050;SDS011;24805;55.852;37.644;2023-05-19T04:33:32;6.93;;;3.92;;
39050;SDS011;24805;55.852;37.644;2023-05-19T04:38:38;5.55;;;4.00;;
39050;SDS011;24805;55.852;37.644;2023-05-19T04:43:42;5.53;;;3.65;;
39050;SDS011;24805;55.852;37.644;2023-05-19T04:48:46;5.80;;;4.03;;
39050;SDS011;24805;55.852;37.644;2023-05-19T04:53:49;4.93;;;3.60;;
39050;SDS011;24805;55.852;37.644;2023-05-19T04:58:53;5.63;;;3.90;;
39050;SDS011;24805;55.852;37.644;2023-05-19T05:03:56;6.45;;;4.03;;
39050;SDS011;24805;55.852;37.644;2023-05-19T05:09:00;4.82;;;3.60;;
39050;SDS011;24805;55.852;37.644;2023-05-19T05:14:05;5.00;;;4.05;;
39050;SDS011;24805;55.852;37.644;2023-05-19T05:19:07;4.93;;;3.58;;
39050;SDS011;24805;55.852;37.644;2023-05-19T05:24:11;4.70;;;4.05;;
39050;SDS011;24805;55.852;37.644;2023-05-19T05:29:18;4.68;;;4.05;;
39050;SDS011;24805;55.852;37.644;2023-05-19T05:34:20;5.80;;;4.60;;
39050;SDS011;24805;55.852;37.644;2023-05-19T05:39:23;6.63;;;4.80;;
39050;SDS011;24805;55.852;37.644;2023-05-19T05:44:25;6.03;;;4.43;;
39050;SDS011;24805;55.852;37.644;2023-05-19T05:49:29;5.25;;;4.60;;
39050;SDS011;24805;55.852;37.644;2023-05-19T05:54:32;7.90;;;5.18;;
39050;SDS011;24805;55.852;37.644;2023-05-19T05:59:34;12.15;;;5.07;;
39050;SDS011;24805;55.852;37.644;2023-05-19T06:04:36;8.05;;;5.55;;
39050;SDS011;24805;55.852;37.644;2023-05-19T06:09:39;9.57;;;6.22;;
39050;SDS011;24805;55.852;37.644;2023-05-19T06:14:42;9.10;;;5.65;;
39050;SDS011;24805;55.852;37.644;2023-05-19T06:19:47;10.63;;;7.55;;
39050;SDS011;24805;55.852;37.644;2023-05-19T06:24:49;8.00;;;6.18;;
39050;SDS011;24805;55.852;37.644;2023-05-19T06:29:53;7.47;;;6.00;;
39050;SDS011;24805;55.852;37.644;2023-05-19T06:34:55;8.57;;;5.80;;
39050;SDS011;24805;55.852;37.644;2023-05-19T06:39:59;8.68;;;6.70;;
39050;SDS011;24805;55.852;37.644;2023-05-19T06:45:01;9.90;;;6.60;;
39050;SDS011;24805;55.852;37.644;2023-05-19T06:50:05;7.28;;;6.38;;
39050;SDS011;24805;55.852;37.644;2023-05-19T06:55:09;7.35;;;6.32;;
39050;SDS011;24805;55.852;37.644;2023-05-19T07:00:12;11.50;;;6.65;;
39050;SDS011;24805;55.852;37.644;2023-05-19T07:05:21;8.20;;;7.13;;
39050;SDS011;24805;55.852;37.644;2023-05-19T07:10:28;10.00;;;7.22;;
39050;SDS011;24805;55.852;37.644;2023-05-19T07:15:31;8.60;;;7.40;;
39050;SDS011;24805;55.852;37.644;2023-05-19T07:20:33;11.48;;;7.65;;
39050;SDS011;24805;55.852;37.644;2023-05-19T07:25:35;10.13;;;7.65;;
39050;SDS011;24805;55.852;37.644;2023-05-19T07:30:38;13.80;;;6.85;;
39050;SDS011;24805;55.852;37.644;2023-05-19T07:35:40;9.95;;;6.47;;
39050;SDS011;24805;55.852;37.644;2023-05-19T07:40:42;7.57;;;4.88;;
39050;SDS011;24805;55.852;37.644;2023-05-19T07:45:44;5.78;;;4.20;;
39050;SDS011;24805;55.852;37.644;2023-05-19T07:50:47;4.70;;;3.30;;
39050;SDS011;24805;55.852;37.644;2023-05-19T07:55:49;4.70;;;2.80;;
39050;SDS011;24805;55.852;37.644;2023-05-19T08:00:51;6.75;;;2.03;;
39050;SDS011;24805;55.852;37.644;2023-05-19T08:05:54;7.75;;;2.30;;
39050;SDS011;24805;55.852;37.644;2023-05-19T08:10:56;7.55;;;1.75;;
39050;SDS011;24805;55.852;37.644;2023-05-19T08:15:58;2.47;;;1.63;;
39050;SDS011;24805;55.852;37.644;2023-05-19T08:21:01;5.93;;;1.77;;
39050;SDS011;24805;55.852;37.644;2023-05-19T08:26:03;6.60;;;1.90;;
39050;SDS011;24805;55.852;37.644;2023-05-19T08:31:06;4.75;;;1.58;;
39050;SDS011;24805;55.852;37.644;2023-05-19T08:36:08;2.75;;;1.60;;
39050;SDS011;24805;55.852;37.644;2023-05-19T08:41:10;5.22;;;1.77;;
39050;SDS011;24805;55.852;37.644;2023-05-19T08:46:12;5.88;;;1.92;;
39050;SDS011;24805;55.852;37.644;2023-05-19T08:51:19;4.22;;;1.40;;
39050;SDS011;24805;55.852;37.644;2023-05-19T08:56:24;2.75;;;1.30;;
39050;SDS011;24805;55.852;37.644;2023-05-19T09:01:27;4.22;;;1.13;;
39050;SDS011;24805;55.852;37.644;2023-05-19T09:06:31;2.72;;;1.13;;
39050;SDS011;24805;55.852;37.644;2023-05-19T09:11:33;1.08;;;0.65;;
39050;SDS011;24805;55.852;37.644;2023-05-19T09:16:38;4.00;;;0.60;;
39050;SDS011;24805;55.852;37.644;2023-05-19T09:21:40;2.47;;;0.90;;
39050;SDS011;24805;55.852;37.644;2023-05-19T09:26:45;1.92;;;0.65;;
39050;SDS011;24805;55.852;37.644;2023-05-19T09:31:53;2.85;;;0.60;;
39050;SDS011;24805;55.852;37.644;2023-05-19T09:37:01;5.40;;;0.90;;
39050;SDS011;24805;55.852;37.644;2023-05-19T09:42:03;3.22;;;0.90;;
39050;SDS011;24805;55.852;37.644;2023-05-19T09:47:08;2.80;;;0.70;;
39050;SDS011;24805;55.852;37.644;2023-05-19T09:52:10;2.03;;;0.52;;
39050;SDS011;24805;55.852;37.644;2023-05-19T09:57:18;1.33;;;0.43;;
39050;SDS011;24805;55.852;37.644;2023-05-19T10:02:27;3.35;;;0.68;;
39050;SDS011;24805;55.852;37.644;2023-05-19T10:07:32;2.92;;;0.68;;
39050;SDS011;24805;55.852;37.644;2023-05-19T10:12:36;1.77;;;0.52;;
39050;SDS011;24805;55.852;37.644;2023-05-19T10:17:40;1.42;;;0.50;;
39050;SDS011;24805;55.852;37.644;2023-05-19T10:22:44;2.28;;;0.70;;
39050;SDS011;24805;55.852;37.644;2023-05-19T10:28:00;2.58;;;0.70;;
39050;SDS011;24805;55.852;37.644;2023-05-19T10:33:07;2.53;;;0.55;;
39050;SDS011;24805;55.852;37.644;2023-05-19T10:38:32;5.03;;;0.65;;
39050;SDS011;24805;55.852;37.644;2023-05-19T10:49:18;2.97;;;0.50;;
39050;SDS011;24805;55.852;37.644;2023-05-19T10:59:50;2.80;;;0.50;;
39050;SDS011;24805;55.852;37.644;2023-05-19T11:04:52;2.22;;;0.68;;
39050;SDS011;24805;55.852;37.644;2023-05-19T11:09:56;6.00;;;0.65;;
39050;SDS011;24805;55.852;37.644;2023-05-19T11:14:59;1.77;;;0.52;;
39050;SDS011;24805;55.852;37.644;2023-05-19T11:20:01;1.30;;;0.47;;
39050;SDS011;24805;55.852;37.644;2023-05-19T11:25:05;3.65;;;0.60;;
39050;SDS011;24805;55.852;37.644;2023-05-19T11:30:09;2.05;;;0.85;;
39050;SDS011;24805;55.852;37.644;2023-05-19T11:35:15;2.60;;;0.55;;
39050;SDS011;24805;55.852;37.644;2023-05-19T11:40:20;2.25;;;0.52;;
39050;SDS011;24805;55.852;37.644;2023-05-19T11:45:25;3.33;;;0.70;;
39050;SDS011;24805;55.852;37.644;2023-05-19T11:50:32;2.97;;;0.70;;
39050;SDS011;24805;55.852;37.644;2023-05-19T11:55:41;5.05;;;0.52;;
39050;SDS011;24805;55.852;37.644;2023-05-19T12:00:45;1.92;;;0.52;;
39050;SDS011;24805;55.852;37.644;2023-05-19T12:05:48;2.25;;;0.68;;
39050;SDS011;24805;55.852;37.644;2023-05-19T12:10:51;3.92;;;0.55;;
39050;SDS011;24805;55.852;37.644;2023-05-19T12:15:57;4.82;;;0.60;;
39050;SDS011;24805;55.852;37.644;2023-05-19T12:21:01;3.67;;;0.57;;
39050;SDS011;24805;55.852;37.644;2023-05-19T12:26:03;3.55;;;1.08;;
39050;SDS011;24805;55.852;37.644;2023-05-19T12:31:06;1.73;;;0.50;;
39050;SDS011;24805;55.852;37.644;2023-05-19T12:36:09;4.47;;;1.00;;
39050;SDS011;24805;55.852;37.644;2023-05-19T12:41:11;3.13;;;0.50;;
39050;SDS011;24805;55.852;37.644;2023-05-19T12:46:13;4.28;;;2.10;;
39050;SDS011;24805;55.852;37.644;2023-05-19T12:51:17;4.10;;;0.60;;
39050;SDS011;24805;55.852;37.644;2023-05-19T12:56:23;5.00;;;0.63;;
39050;SDS011;24805;55.852;37.644;2023-05-19T13:01:28;4.95;;;0.80;;
39050;SDS011;24805;55.852;37.644;2023-05-19T13:06:31;6.38;;;0.50;;
39050;SDS011;24805;55.852;37.644;2023-05-19T13:11:34;1.85;;;0.50;;
39050;SDS011;24805;55.852;37.644;2023-05-19T13:16:36;3.67;;;0.60;;
39050;SDS011;24805;55.852;37.644;2023-05-19T13:21:38;8.07;;;0.68;;
39050;SDS011;24805;55.852;37.644;2023-05-19T13:26:40;4.90;;;0.63;;
39050;SDS011;24805;55.852;37.644;2023-05-19T13:31:42;1.02;;;0.30;;
39050;SDS011;24805;55.852;37.644;2023-05-19T13:36:45;2.75;;;0.70;;
39050;SDS011;24805;55.852;37.644;2023-05-19T13:41:49;4.43;;;0.77;;
39050;SDS011;24805;55.852;37.644;2023-05-19T13:46:51;3.17;;;0.45;;
39050;SDS011;24805;55.852;37.644;2023-05-19T13:51:56;2.30;;;0.63;;
39050;SDS011;24805;55.852;37.644;2023-05-19T13:56:59;2.45;;;0.73;;
39050;SDS011;24805;55.852;37.644;2023-05-19T14:02:01;5.68;;;0.55;;
39050;SDS011;24805;55.852;37.644;2023-05-19T14:07:04;4.85;;;0.60;;
39050;SDS011;24805;55.852;37.644;2023-05-19T14:12:07;2.92;;;0.60;;
39050;SDS011;24805;55.852;37.644;2023-05-19T14:17:12;2.05;;;0.52;;
39050;SDS011;24805;55.852;37.644;2023-05-19T14:22:15;3.90;;;0.70;;
39050;SDS011;24805;55.852;37.644;2023-05-19T14:27:18;5.95;;;0.73;;
39050;SDS011;24805;55.852;37.644;2023-05-19T14:32:20;2.17;;;0.50;;
39050;SDS011;24805;55.852;37.644;2023-05-19T14:37:23;1.88;;;0.60;;
39050;SDS011;24805;55.852;37.644;2023-05-19T14:42:28;2.75;;;0.57;;
39050;SDS011;24805;55.852;37.644;2023-05-19T14:47:30;5.68;;;0.60;;
39050;SDS011;24805;55.852;37.644;2023-05-19T14:52:32;3.13;;;0.55;;
39050;SDS011;24805;55.852;37.644;2023-05-19T14:57:34;5.82;;;0.70;;
39050;SDS011;24805;55.852;37.644;2023-05-19T15:02:36;4.82;;;0.60;;
39050;SDS011;24805;55.852;37.644;2023-05-19T15:07:39;3.80;;;0.65;;
39050;SDS011;24805;55.852;37.644;2023-05-19T15:12:41;2.88;;;0.65;;
39050;SDS011;24805;55.852;37.644;2023-05-19T15:17:43;2.92;;;0.60;;
39050;SDS011;24805;55.852;37.644;2023-05-19T15:22:48;1.65;;;0.60;;
39050;SDS011;24805;55.852;37.644;2023-05-19T15:27:50;2.85;;;0.52;;
39050;SDS011;24805;55.852;37.644;2023-05-19T15:32:53;3.60;;;0.57;;
39050;SDS011;24805;55.852;37.644;2023-05-19T15:37:55;3.03;;;1.00;;
39050;SDS011;24805;55.852;37.644;2023-05-19T15:42:58;5.20;;;0.70;;
39050;SDS011;24805;55.852;37.644;2023-05-19T15:48:00;2.75;;;0.98;;
39050;SDS011;24805;55.852;37.644;2023-05-19T15:53:03;2.22;;;0.75;;
39050;SDS011;24805;55.852;37.644;2023-05-19T15:58:07;3.40;;;0.93;;
39050;SDS011;24805;55.852;37.644;2023-05-19T16:03:09;2.97;;;0.70;;
39050;SDS011;24805;55.852;37.644;2023-05-19T16:08:11;5.85;;;0.60;;
39050;SDS011;24805;55.852;37.644;2023-05-19T16:13:14;7.18;;;0.82;;
39050;SDS011;24805;55.852;37.644;2023-05-19T16:28:20;4.68;;;0.63;;
39050;SDS011;24805;55.852;37.644;2023-05-19T16:33:25;2.72;;;0.50;;
39050;SDS011;24805;55.852;37.644;2023-05-19T16:38:28;7.07;;;0.88;;
39050;SDS011;24805;55.852;37.644;2023-05-19T16:43:30;5.78;;;0.60;;
39050;SDS011;24805;55.852;37.644;2023-05-19T16:48:34;4.75;;;0.60;;
39050;SDS011;24805;55.852;37.644;2023-05-19T16:53:36;6.88;;;0.70;;
39050;SDS011;24805;55.852;37.644;2023-05-19T16:58:40;5.07;;;0.77;;
39050;SDS011;24805;55.852;37.644;2023-05-19T17:03:42;5.28;;;1.20;;
39050;SDS011;24805;55.852;37.644;2023-05-19T17:08:44;7.68;;;0.68;;
39050;SDS011;24805;55.852;37.644;2023-05-19T17:13:47;5.18;;;0.70;;
39050;SDS011;24805;55.852;37.644;2023-05-19T17:23:51;4.93;;;0.60;;
39050;SDS011;24805;55.852;37.644;2023-05-19T17:28:54;6.35;;;0.73;;
39050;SDS011;24805;55.852;37.644;2023-05-19T17:33:56;3.78;;;0.70;;
39050;SDS011;24805;55.852;37.644;2023-05-19T17:38:58;3.22;;;0.80;;
39050;SDS011;24805;55.852;37.644;2023-05-19T17:44:00;5.65;;;0.98;;
39050;SDS011;24805;55.852;37.644;2023-05-19T17:49:04;3.33;;;1.20;;
39050;SDS011;24805;55.852;37.644;2023-05-19T17:54:07;8.25;;;1.40;;
39050;SDS011;24805;55.852;37.644;2023-05-19T17:59:09;3.60;;;0.80;;
39050;SDS011;24805;55.852;37.644;2023-05-19T18:04:12;7.75;;;1.00;;
39050;SDS011;24805;55.852;37.644;2023-05-19T18:09:17;8.82;;;1.10;;
39050;SDS011;24805;55.852;37.644;2023-05-19T18:14:20;2.63;;;0.70;;
39050;SDS011;24805;55.852;37.644;2023-05-19T18:19:22;9.50;;;1.38;;
39050;SDS011;24805;55.852;37.644;2023-05-19T18:24:24;3.38;;;1.30;;
39050;SDS011;24805;55.852;37.644;2023-05-19T18:29:27;3.45;;;1.00;;
39050;SDS011;24805;55.852;37.644;2023-05-19T18:34:29;4.82;;;1.77;;
39050;SDS011;24805;55.852;37.644;2023-05-19T18:39:31;5.60;;;1.58;;
39050;SDS011;24805;55.852;37.644;2023-05-19T18:44:35;5.13;;;1.23;;
39050;SDS011;24805;55.852;37.644;2023-05-19T18:49:37;4.13;;;0.90;;
39050;SDS011;24805;55.852;37.644;2023-05-19T18:54:39;2.92;;;1.15;;
39050;SDS011;24805;55.852;37.644;2023-05-19T18:59:42;4.35;;;1.20;;
39050;SDS011;24805;55.852;37.644;2023-05-19T19:04:45;2.03;;;0.90;;
39050;SDS011;24805;55.852;37.644;2023-05-19T19:09:47;5.63;;;0.93;;
39050;SDS011;24805;55.852;37.644;2023-05-19T19:14:49;4.15;;;0.75;;
39050;SDS011;24805;55.852;37.644;2023-05-19T19:19:51;3.78;;;0.82;;
39050;SDS011;24805;55.852;37.644;2023-05-19T19:24:54;4.70;;;1.10;;
39050;SDS011;24805;55.852;37.644;2023-05-19T19:34:59;3.65;;;0.80;;
39050;SDS011;24805;55.852;37.644;2023-05-19T19:40:01;5.10;;;0.93;;
39050;SDS011;24805;55.852;37.644;2023-05-19T19:45:07;3.88;;;1.05;;
39050;SDS011;24805;55.852;37.644;2023-05-19T19:50:10;3.47;;;1.00;;
39050;SDS011;24805;55.852;37.644;2023-05-19T19:55:12;1.85;;;0.90;;
39050;SDS011;24805;55.852;37.644;2023-05-19T20:00:14;3.90;;;0.73;;
39050;SDS011;24805;55.852;37.644;2023-05-19T20:05:17;3.78;;;1.17;;
39050;SDS011;24805;55.852;37.644;2023-05-19T20:10:19;5.10;;;0.93;;
39050;SDS011;24805;55.852;37.644;2023-05-19T20:15:21;5.22;;;1.30;;
39050;SDS011;24805;55.852;37.644;2023-05-19T20:25:25;2.78;;;0.98;;
39050;SDS011;24805;55.852;37.644;2023-05-19T20:30:27;3.75;;;1.13;;
39050;SDS011;24805;55.852;37.644;2023-05-19T20:35:30;3.95;;;1.17;;
39050;SDS011;24805;55.852;37.644;2023-05-19T20:40:32;1.60;;;0.90;;
39050;SDS011;24805;55.852;37.644;2023-05-19T20:45:34;3.47;;;0.90;;
39050;SDS011;24805;55.852;37.644;2023-05-19T20:50:38;2.63;;;1.00;;
39050;SDS011;24805;55.852;37.644;2023-05-19T20:55:42;3.95;;;1.45;;
39050;SDS011;24805;55.852;37.644;2023-05-19T21:00:44;6.72;;;1.27;;
39050;SDS011;24805;55.852;37.644;2023-05-19T21:05:47;3.60;;;1.38;;
39050;SDS011;24805;55.852;37.644;2023-05-19T21:15:51;3.88;;;1.10;;
39050;SDS011;24805;55.852;37.644;2023-05-19T21:25:55;3.58;;;0.88;;
39050;SDS011;24805;55.852;37.644;2023-05-19T21:30:59;2.00;;;0.65;;
39050;SDS011;24805;55.852;37.644;2023-05-19T21:36:01;2.97;;;0.63;;
39050;SDS011;24805;55.852;37.644;2023-05-19T21:46:05;2.80;;;1.00;;
39050;SDS011;24805;55.852;37.644;2023-05-19T21:51:08;6.25;;;1.20;;
39050;SDS011;24805;55.852;37.644;2023-05-19T21:56:10;2.30;;;0.55;;
39050;SDS011;24805;55.852;37.644;2023-05-19T22:01:12;1.38;;;0.60;;
39050;SDS011;24805;55.852;37.644;2023-05-19T22:06:14;5.28;;;0.70;;
39050;SDS011;24805;55.852;37.644;2023-05-19T22:16:19;1.73;;;0.80;;
39050;SDS011;24805;55.852;37.644;2023-05-19T22:21:21;2.92;;;1.00;;
39050;SDS011;24805;55.852;37.644;2023-05-19T22:26:23;1.63;;;0.52;;
39050;SDS011;24805;55.852;37.644;2023-05-19T22:31:26;1.17;;;0.68;;
39050;SDS011;24805;55.852;37.644;2023-05-19T22:36:29;8.98;;;0.98;;
39050;SDS011;24805;55.852;37.644;2023-05-19T22:41:32;2.40;;;0.90;;
39050;SDS011;24805;55.852;37.644;2023-05-19T22:46:35;4.18;;;0.50;;
39050;SDS011;24805;55.852;37.644;2023-05-19T22:51:37;3.15;;;0.70;;
39050;SDS011;24805;55.852;37.644;2023-05-19T22:56:40;2.40;;;0.80;;
39050;SDS011;24805;55.852;37.644;2023-05-19T23:01:46;3.85;;;0.77;;
39050;SDS011;24805;55.852;37.644;2023-05-19T23:06:49;1.20;;;0.50;;
39050;SDS011;24805;55.852;37.644;2023-05-19T23:11:51;2.65;;;0.47;;
39050;SDS011;24805;55.852;37.644;2023-05-19T23:16:54;4.28;;;0.80;;
39050;SDS011;24805;55.852;37.644;2023-05-19T23:21:56;1.13;;;0.57;;
39050;SDS011;24805;55.852;37.644;2023-05-19T23:32:01;1.25;;;0.50;;
39050;SDS011;24805;55.852;37.644;2023-05-19T23:37:03;2.08;;;0.60;;
39050;SDS011;24805;55.852;37.644;2023-05-19T23:42:06;2.28;;;0.70;;
39050;SDS011;24805;55.852;37.644;2023-05-19T23:47:08;2.92;;;0.65;;
39050;SDS011;24805;55.852;37.644;2023-05-19T23:57:13;2.45;;;0.50;;
